sensor_id;sensor_type;location;lat;lon;timestamp;pressure;altitude;pressure_sealevel;temperature;humidity
12209;BME280;6167;43.080;25.634;2022-07-15T00:01:30;99482.84;;;20.31;100.00
12209;BME280;6167;43.080;25.634;2022-07-15T00:03:59;99489.16;;;20.41;100.00
12209;BME280;6167;43.080;25.634;2022-07-15T00:06:28;99488.47;;;20.28;100.00
12209;BME280;6167;43.080;25.634;2022-07-15T00:08:54;99491.44;;;20.04;100.00
12209;BME280;6167;43.080;25.634;2022-07-15T00:11:21;99495.50;;;19.67;100.00
12209;BME280;6167;43.080;25.634;2022-07-15T00:13:48;99493.72;;;19.45;100.00
12209;BME280;6167;43.080;25.634;2022-07-15T00:16:16;99494.25;;;19.50;100.00
12209;BME280;6167;43.080;25.634;2022-07-15T00:18:43;99492.44;;;19.28;100.00
12209;BME280;6167;43.080;25.634;2022-07-15T00:21:10;99500.41;;;19.07;100.00
12209;BME280;6167;43.080;25.634;2022-07-15T00:23:38;99494.19;;;18.96;100.00
12209;BME280;6167;43.080;25.634;2022-07-15T00:26:05;99497.72;;;18.74;100.00
12209;BME280;6167;43.080;25.634;2022-07-15T00:28:32;99494.09;;;18.86;100.00
12209;BME280;6167;43.080;25.634;2022-07-15T00:31:00;99501.13;;;18.98;100.00
12209;BME280;6167;43.080;25.634;2022-07-15T00:33:26;99494.16;;;19.29;100.00
12209;BME280;6167;43.080;25.634;2022-07-15T00:35:54;99494.13;;;19.51;100.00
12209;BME280;6167;43.080;25.634;2022-07-15T00:38:21;99482.56;;;19.72;100.00
12209;BME280;6167;43.080;25.634;2022-07-15T00:40:50;99491.41;;;19.83;100.00
12209;BME280;6167;43.080;25.634;2022-07-15T00:43:18;99480.16;;;19.89;100.00
12209;BME280;6167;43.080;25.634;2022-07-15T00:45:46;99486.19;;;19.50;100.00
12209;BME280;6167;43.080;25.634;2022-07-15T00:48:13;99482.44;;;19.30;100.00
12209;BME280;6167;43.080;25.634;2022-07-15T00:50:40;99476.78;;;19.55;100.00
12209;BME280;6167;43.080;25.634;2022-07-15T00:53:10;99474.13;;;19.76;100.00
12209;BME280;6167;43.080;25.634;2022-07-15T00:55:41;99464.59;;;19.83;100.00
12209;BME280;6167;43.080;25.634;2022-07-15T00:58:15;99471.81;;;19.51;100.00
12209;BME280;6167;43.080;25.634;2022-07-15T01:00:42;99478.47;;;19.02;100.00
12209;BME280;6167;43.080;25.634;2022-07-15T01:03:09;99472.88;;;19.05;100.00
12209;BME280;6167;43.080;25.634;2022-07-15T01:05:37;99462.09;;;19.28;100.00
12209;BME280;6167;43.080;25.634;2022-07-15T01:08:04;99470.19;;;19.48;100.00
12209;BME280;6167;43.080;25.634;2022-07-15T01:10:34;99469.81;;;19.64;100.00
12209;BME280;6167;43.080;25.634;2022-07-15T01:13:01;99466.47;;;19.72;100.00
12209;BME280;6167;43.080;25.634;2022-07-15T01:15:31;99461.19;;;19.81;100.00
12209;BME280;6167;43.080;25.634;2022-07-15T01:17:59;99462.97;;;19.92;100.00
12209;BME280;6167;43.080;25.634;2022-07-15T01:20:26;99458.16;;;19.96;100.00
12209;BME280;6167;43.080;25.634;2022-07-15T01:22:55;99454.00;;;20.03;100.00
12209;BME280;6167;43.080;25.634;2022-07-15T01:25:22;99448.03;;;19.99;100.00
12209;BME280;6167;43.080;25.634;2022-07-15T01:27:49;99458.59;;;19.59;100.00
12209;BME280;6167;43.080;25.634;2022-07-15T01:30:16;99458.84;;;19.13;100.00
12209;BME280;6167;43.080;25.634;2022-07-15T01:32:43;99456.91;;;19.47;100.00
12209;BME280;6167;43.080;25.634;2022-07-15T01:35:10;99453.84;;;19.63;100.00
12209;BME280;6167;43.080;25.634;2022-07-15T01:37:37;99446.69;;;19.41;100.00
12209;BME280;6167;43.080;25.634;2022-07-15T01:40:07;99454.78;;;19.30;100.00
12209;BME280;6167;43.080;25.634;2022-07-15T01:42:34;99448.91;;;18.81;100.00
12209;BME280;6167;43.080;25.634;2022-07-15T01:45:03;99445.53;;;18.68;100.00
12209;BME280;6167;43.080;25.634;2022-07-15T01:47:30;99452.22;;;18.74;100.00
12209;BME280;6167;43.080;25.634;2022-07-15T01:49:58;99453.44;;;18.81;100.00
12209;BME280;6167;43.080;25.634;2022-07-15T01:52:25;99451.72;;;18.91;100.00
12209;BME280;6167;43.080;25.634;2022-07-15T01:54:51;99448.91;;;18.93;100.00
12209;BME280;6167;43.080;25.634;2022-07-15T01:57:20;99449.00;;;19.02;100.00
12209;BME280;6167;43.080;25.634;2022-07-15T01:59:47;99437.56;;;19.11;100.00
12209;BME280;6167;43.080;25.634;2022-07-15T02:02:14;99431.28;;;19.22;100.00
12209;BME280;6167;43.080;25.634;2022-07-15T02:04:41;99441.97;;;19.33;100.00
12209;BME280;6167;43.080;25.634;2022-07-15T02:07:08;99441.94;;;19.44;100.00
12209;BME280;6167;43.080;25.634;2022-07-15T02:09:35;99441.06;;;19.55;100.00
12209;BME280;6167;43.080;25.634;2022-07-15T02:12:03;99442.00;;;19.65;100.00
12209;BME280;6167;43.080;25.634;2022-07-15T02:14:33;99440.56;;;19.61;100.00
12209;BME280;6167;43.080;25.634;2022-07-15T02:17:01;99444.47;;;19.57;100.00
12209;BME280;6167;43.080;25.634;2022-07-15T02:19:28;99442.72;;;19.67;100.00
12209;BME280;6167;43.080;25.634;2022-07-15T02:21:55;99449.78;;;19.68;100.00
12209;BME280;6167;43.080;25.634;2022-07-15T02:24:22;99444.69;;;19.65;100.00
12209;BME280;6167;43.080;25.634;2022-07-15T02:26:49;99439.81;;;19.59;100.00
12209;BME280;6167;43.080;25.634;2022-07-15T02:29:16;99453.41;;;19.35;100.00
12209;BME280;6167;43.080;25.634;2022-07-15T02:31:45;99461.28;;;19.16;100.00
12209;BME280;6167;43.080;25.634;2022-07-15T02:34:12;99459.16;;;18.76;100.00
12209;BME280;6167;43.080;25.634;2022-07-15T02:36:39;99462.53;;;18.45;100.00
12209;BME280;6167;43.080;25.634;2022-07-15T02:39:06;99461.44;;;18.59;100.00
12209;BME280;6167;43.080;25.634;2022-07-15T02:41:33;99462.91;;;18.40;100.00
12209;BME280;6167;43.080;25.634;2022-07-15T02:44:00;99463.84;;;18.50;100.00
12209;BME280;6167;43.080;25.634;2022-07-15T02:46:28;99463.03;;;18.72;100.00
12209;BME280;6167;43.080;25.634;2022-07-15T02:48:56;99463.03;;;18.83;100.00
12209;BME280;6167;43.080;25.634;2022-07-15T02:51:23;99469.34;;;18.94;100.00
12209;BME280;6167;43.080;25.634;2022-07-15T02:53:50;99474.13;;;18.90;100.00
12209;BME280;6167;43.080;25.634;2022-07-15T02:56:17;99470.19;;;19.05;100.00
12209;BME280;6167;43.080;25.634;2022-07-15T02:58:44;99466.75;;;19.14;100.00
12209;BME280;6167;43.080;25.634;2022-07-15T03:01:11;99456.19;;;19.02;100.00
12209;BME280;6167;43.080;25.634;2022-07-15T03:03:38;99470.16;;;19.16;100.00
12209;BME280;6167;43.080;25.634;2022-07-15T03:06:06;99463.81;;;19.29;100.00
12209;BME280;6167;43.080;25.634;2022-07-15T03:08:33;99453.69;;;19.32;100.00
12209;BME280;6167;43.080;25.634;2022-07-15T03:11:00;99458.75;;;19.46;100.00
12209;BME280;6167;43.080;25.634;2022-07-15T03:13:27;99460.69;;;19.55;100.00
12209;BME280;6167;43.080;25.634;2022-07-15T03:15:54;99461.41;;;19.58;100.00
12209;BME280;6167;43.080;25.634;2022-07-15T03:18:21;99460.31;;;19.60;100.00
12209;BME280;6167;43.080;25.634;2022-07-15T03:20:48;99458.22;;;19.64;100.00
12209;BME280;6167;43.080;25.634;2022-07-15T03:23:16;99462.13;;;19.60;100.00
12209;BME280;6167;43.080;25.634;2022-07-15T03:25:43;99469.91;;;19.19;100.00
12209;BME280;6167;43.080;25.634;2022-07-15T03:28:10;99469.63;;;19.34;100.00
12209;BME280;6167;43.080;25.634;2022-07-15T03:30:38;99463.50;;;19.11;100.00
12209;BME280;6167;43.080;25.634;2022-07-15T03:33:04;99457.41;;;18.98;100.00
12209;BME280;6167;43.080;25.634;2022-07-15T03:35:32;99452.91;;;19.09;100.00
12209;BME280;6167;43.080;25.634;2022-07-15T03:37:59;99468.84;;;19.00;100.00
12209;BME280;6167;43.080;25.634;2022-07-15T03:40:27;99471.38;;;19.23;100.00
12209;BME280;6167;43.080;25.634;2022-07-15T03:42:54;99464.38;;;19.43;100.00
12209;BME280;6167;43.080;25.634;2022-07-15T03:45:22;99468.69;;;19.67;100.00
12209;BME280;6167;43.080;25.634;2022-07-15T03:47:49;99469.69;;;19.86;100.00
12209;BME280;6167;43.080;25.634;2022-07-15T03:50:16;99453.81;;;20.15;100.00
12209;BME280;6167;43.080;25.634;2022-07-15T03:52:43;99460.78;;;20.48;100.00
12209;BME280;6167;43.080;25.634;2022-07-15T03:55:10;99447.22;;;20.90;100.00
12209;BME280;6167;43.080;25.634;2022-07-15T03:57:39;99453.06;;;20.95;100.00
12209;BME280;6167;43.080;25.634;2022-07-15T04:00:07;99449.38;;;21.06;100.00
12209;BME280;6167;43.080;25.634;2022-07-15T04:02:34;99452.19;;;21.54;100.00
12209;BME280;6167;43.080;25.634;2022-07-15T04:05:01;99448.03;;;22.08;98.26
12209;BME280;6167;43.080;25.634;2022-07-15T04:07:28;99451.09;;;22.32;98.21
12209;BME280;6167;43.080;25.634;2022-07-15T04:09:54;99453.81;;;22.32;97.85
12209;BME280;6167;43.080;25.634;2022-07-15T04:12:21;99444.78;;;22.23;97.81
12209;BME280;6167;43.080;25.634;2022-07-15T04:14:50;99456.50;;;22.32;100.00
12209;BME280;6167;43.080;25.634;2022-07-15T04:17:17;99445.63;;;22.61;97.39
12209;BME280;6167;43.080;25.634;2022-07-15T04:19:43;99451.97;;;22.79;93.04
12209;BME280;6167;43.080;25.634;2022-07-15T04:22:10;99458.50;;;23.04;90.36
12209;BME280;6167;43.080;25.634;2022-07-15T04:24:37;99448.78;;;23.56;85.76
12209;BME280;6167;43.080;25.634;2022-07-15T04:27:04;99438.44;;;24.13;77.05
12209;BME280;6167;43.080;25.634;2022-07-15T04:29:31;99434.91;;;24.64;71.25
12209;BME280;6167;43.080;25.634;2022-07-15T04:32:03;99450.22;;;25.24;66.02
12209;BME280;6167;43.080;25.634;2022-07-15T04:34:30;99440.59;;;25.38;62.10
12209;BME280;6167;43.080;25.634;2022-07-15T04:36:56;99444.34;;;25.45;61.93
12209;BME280;6167;43.080;25.634;2022-07-15T04:39:23;99438.72;;;25.38;61.68
12209;BME280;6167;43.080;25.634;2022-07-15T04:41:50;99445.06;;;25.87;60.39
12209;BME280;6167;43.080;25.634;2022-07-15T04:44:18;99441.31;;;26.21;61.26
12209;BME280;6167;43.080;25.634;2022-07-15T04:46:45;99444.16;;;26.60;57.39
12209;BME280;6167;43.080;25.634;2022-07-15T04:49:13;99444.72;;;26.94;57.52
12209;BME280;6167;43.080;25.634;2022-07-15T04:51:57;99447.41;;;27.33;54.06
12209;BME280;6167;43.080;25.634;2022-07-15T04:57:30;99439.22;;;27.87;50.88
12209;BME280;6167;43.080;25.634;2022-07-15T04:59:56;99426.53;;;28.25;51.47
12209;BME280;6167;43.080;25.634;2022-07-15T05:02:24;99439.94;;;28.56;51.18
12209;BME280;6167;43.080;25.634;2022-07-15T05:04:52;99428.88;;;28.72;49.37
12209;BME280;6167;43.080;25.634;2022-07-15T05:07:19;99438.16;;;28.93;47.15
12209;BME280;6167;43.080;25.634;2022-07-15T05:09:46;99436.91;;;29.25;45.90
12209;BME280;6167;43.080;25.634;2022-07-15T05:12:13;99434.72;;;29.50;46.18
12209;BME280;6167;43.080;25.634;2022-07-15T05:14:40;99434.06;;;29.69;44.93
12209;BME280;6167;43.080;25.634;2022-07-15T05:17:08;99429.66;;;29.68;45.30
12209;BME280;6167;43.080;25.634;2022-07-15T05:19:35;99430.53;;;29.75;46.00
12209;BME280;6167;43.080;25.634;2022-07-15T05:22:06;99431.00;;;30.00;45.16
12209;BME280;6167;43.080;25.634;2022-07-15T05:24:33;99437.78;;;30.32;44.62
12209;BME280;6167;43.080;25.634;2022-07-15T05:27:00;99404.22;;;30.38;43.14
12209;BME280;6167;43.080;25.634;2022-07-15T05:29:27;99432.25;;;30.88;40.74
12209;BME280;6167;43.080;25.634;2022-07-15T05:31:54;99426.19;;;30.99;41.11
12209;BME280;6167;43.080;25.634;2022-07-15T05:34:21;99430.81;;;31.46;40.12
12209;BME280;6167;43.080;25.634;2022-07-15T05:36:47;99421.16;;;31.63;38.87
12209;BME280;6167;43.080;25.634;2022-07-15T05:39:16;99425.00;;;32.08;38.27
12209;BME280;6167;43.080;25.634;2022-07-15T05:41:43;99405.88;;;32.15;38.13
12209;BME280;6167;43.080;25.634;2022-07-15T05:44:10;99396.00;;;32.14;37.07
12209;BME280;6167;43.080;25.634;2022-07-15T05:46:38;99404.94;;;32.67;37.08
12209;BME280;6167;43.080;25.634;2022-07-15T05:49:06;99415.84;;;32.87;37.21
12209;BME280;6167;43.080;25.634;2022-07-15T05:51:33;99415.75;;;31.83;38.20
12209;BME280;6167;43.080;25.634;2022-07-15T05:54:00;99413.22;;;31.68;39.09
12209;BME280;6167;43.080;25.634;2022-07-15T05:56:29;99406.09;;;31.94;38.23
12209;BME280;6167;43.080;25.634;2022-07-15T05:58:57;99412.19;;;32.09;38.52
12209;BME280;6167;43.080;25.634;2022-07-15T06:01:24;99390.72;;;32.13;39.40
12209;BME280;6167;43.080;25.634;2022-07-15T06:03:52;99411.09;;;32.50;39.13
12209;BME280;6167;43.080;25.634;2022-07-15T06:06:21;99407.50;;;32.75;38.92
12209;BME280;6167;43.080;25.634;2022-07-15T06:08:51;99384.91;;;32.87;37.81
12209;BME280;6167;43.080;25.634;2022-07-15T06:11:18;99388.75;;;32.79;37.37
12209;BME280;6167;43.080;25.634;2022-07-15T06:13:48;99389.00;;;33.16;35.75
12209;BME280;6167;43.080;25.634;2022-07-15T06:16:21;99404.53;;;32.77;37.28
12209;BME280;6167;43.080;25.634;2022-07-15T06:18:48;99387.28;;;33.21;36.85
12209;BME280;6167;43.080;25.634;2022-07-15T06:21:16;99406.56;;;33.77;35.00
12209;BME280;6167;43.080;25.634;2022-07-15T06:23:43;99401.00;;;34.09;34.35
12209;BME280;6167;43.080;25.634;2022-07-15T06:26:11;99400.47;;;34.50;33.48
12209;BME280;6167;43.080;25.634;2022-07-15T06:28:38;99409.63;;;34.80;34.17
12209;BME280;6167;43.080;25.634;2022-07-15T06:31:10;99389.56;;;34.80;33.63
12209;BME280;6167;43.080;25.634;2022-07-15T06:33:37;99378.66;;;34.92;34.67
12209;BME280;6167;43.080;25.634;2022-07-15T06:36:05;99385.13;;;34.97;35.93
12209;BME280;6167;43.080;25.634;2022-07-15T06:38:33;99398.22;;;35.13;32.80
12209;BME280;6167;43.080;25.634;2022-07-15T06:41:00;99386.41;;;35.31;32.12
12209;BME280;6167;43.080;25.634;2022-07-15T06:43:28;99370.09;;;35.60;31.94
12209;BME280;6167;43.080;25.634;2022-07-15T06:45:56;99384.28;;;35.87;32.86
12209;BME280;6167;43.080;25.634;2022-07-15T06:48:30;99377.97;;;36.09;31.99
12209;BME280;6167;43.080;25.634;2022-07-15T06:50:57;99372.25;;;35.58;31.67
12209;BME280;6167;43.080;25.634;2022-07-15T06:53:25;99386.44;;;35.85;31.85
12209;BME280;6167;43.080;25.634;2022-07-15T06:55:52;99353.31;;;36.03;32.74
12209;BME280;6167;43.080;25.634;2022-07-15T06:58:19;99380.28;;;36.36;32.41
12209;BME280;6167;43.080;25.634;2022-07-15T07:00:47;99373.19;;;36.52;30.90
12209;BME280;6167;43.080;25.634;2022-07-15T07:03:14;99346.00;;;36.20;30.52
12209;BME280;6167;43.080;25.634;2022-07-15T07:05:43;99374.72;;;36.71;30.79
12209;BME280;6167;43.080;25.634;2022-07-15T07:08:10;99360.84;;;36.77;31.21
12209;BME280;6167;43.080;25.634;2022-07-15T07:10:38;99367.31;;;37.00;29.63
12209;BME280;6167;43.080;25.634;2022-07-15T07:13:05;99376.97;;;36.86;30.67
12209;BME280;6167;43.080;25.634;2022-07-15T07:15:32;99363.09;;;36.69;32.15
12209;BME280;6167;43.080;25.634;2022-07-15T07:17:59;99375.22;;;37.20;31.42
12209;BME280;6167;43.080;25.634;2022-07-15T07:20:26;99375.19;;;37.48;29.70
12209;BME280;6167;43.080;25.634;2022-07-15T07:22:54;99361.78;;;37.11;29.70
12209;BME280;6167;43.080;25.634;2022-07-15T07:25:22;99370.91;;;36.48;29.81
12209;BME280;6167;43.080;25.634;2022-07-15T07:27:49;99377.94;;;35.86;31.37
12209;BME280;6167;43.080;25.634;2022-07-15T07:30:16;99380.47;;;34.98;32.32
12209;BME280;6167;43.080;25.634;2022-07-15T07:32:43;99374.28;;;34.29;32.66
12209;BME280;6167;43.080;25.634;2022-07-15T07:35:11;99368.00;;;35.13;34.60
12209;BME280;6167;43.080;25.634;2022-07-15T07:37:38;99376.53;;;35.95;32.14
12209;BME280;6167;43.080;25.634;2022-07-15T07:40:08;99364.59;;;36.13;30.98
12209;BME280;6167;43.080;25.634;2022-07-15T07:42:35;99372.16;;;36.93;28.79
12209;BME280;6167;43.080;25.634;2022-07-15T07:45:05;99367.16;;;37.63;27.81
12209;BME280;6167;43.080;25.634;2022-07-15T07:47:33;99367.72;;;37.94;27.73
12209;BME280;6167;43.080;25.634;2022-07-15T07:50:03;99373.47;;;38.26;27.45
12209;BME280;6167;43.080;25.634;2022-07-15T07:52:29;99367.69;;;38.27;28.29
12209;BME280;6167;43.080;25.634;2022-07-15T07:54:57;99364.44;;;38.30;26.95
12209;BME280;6167;43.080;25.634;2022-07-15T07:57:25;99361.97;;;38.50;28.21
12209;BME280;6167;43.080;25.634;2022-07-15T07:59:52;99362.38;;;38.21;26.43
12209;BME280;6167;43.080;25.634;2022-07-15T08:02:19;99361.53;;;38.03;26.46
12209;BME280;6167;43.080;25.634;2022-07-15T08:04:46;99359.19;;;38.50;26.54
12209;BME280;6167;43.080;25.634;2022-07-15T08:07:13;99361.19;;;38.55;27.72
12209;BME280;6167;43.080;25.634;2022-07-15T08:09:40;99360.88;;;38.51;29.11
12209;BME280;6167;43.080;25.634;2022-07-15T08:12:08;99353.91;;;38.88;26.26
12209;BME280;6167;43.080;25.634;2022-07-15T08:14:36;99348.81;;;37.24;26.90
12209;BME280;6167;43.080;25.634;2022-07-15T08:17:04;99350.69;;;38.13;26.72
12209;BME280;6167;43.080;25.634;2022-07-15T08:19:31;99355.38;;;38.73;26.33
12209;BME280;6167;43.080;25.634;2022-07-15T08:21:59;99354.69;;;38.83;25.07
12209;BME280;6167;43.080;25.634;2022-07-15T08:24:26;99354.88;;;38.98;25.07
12209;BME280;6167;43.080;25.634;2022-07-15T08:26:53;99347.09;;;39.17;24.83
12209;BME280;6167;43.080;25.634;2022-07-15T08:29:20;99350.00;;;39.32;22.77
12209;BME280;6167;43.080;25.634;2022-07-15T08:31:49;99348.56;;;39.51;22.78
12209;BME280;6167;43.080;25.634;2022-07-15T08:34:16;99353.16;;;39.73;22.22
12209;BME280;6167;43.080;25.634;2022-07-15T08:36:43;99350.81;;;39.87;23.44
12209;BME280;6167;43.080;25.634;2022-07-15T08:39:10;99349.88;;;39.76;23.75
12209;BME280;6167;43.080;25.634;2022-07-15T08:41:38;99347.81;;;38.64;24.48
12209;BME280;6167;43.080;25.634;2022-07-15T08:44:06;99337.50;;;38.37;24.34
12209;BME280;6167;43.080;25.634;2022-07-15T08:46:34;99339.28;;;38.48;25.48
12209;BME280;6167;43.080;25.634;2022-07-15T08:49:05;99341.97;;;38.82;24.37
12209;BME280;6167;43.080;25.634;2022-07-15T08:51:36;99339.00;;;38.67;23.24
12209;BME280;6167;43.080;25.634;2022-07-15T08:54:04;99334.63;;;38.71;24.60
12209;BME280;6167;43.080;25.634;2022-07-15T08:56:32;99340.19;;;38.32;24.92
12209;BME280;6167;43.080;25.634;2022-07-15T08:59:01;99328.69;;;38.57;24.83
12209;BME280;6167;43.080;25.634;2022-07-15T09:01:30;99331.59;;;39.16;23.71
12209;BME280;6167;43.080;25.634;2022-07-15T09:03:58;99328.38;;;39.24;23.26
12209;BME280;6167;43.080;25.634;2022-07-15T09:06:35;99320.97;;;38.59;25.61
12209;BME280;6167;43.080;25.634;2022-07-15T09:09:24;99321.81;;;39.03;23.40
12209;BME280;6167;43.080;25.634;2022-07-15T09:11:56;99324.13;;;39.43;22.54
12209;BME280;6167;43.080;25.634;2022-07-15T09:14:25;99318.28;;;38.64;23.52
12209;BME280;6167;43.080;25.634;2022-07-15T09:17:18;99318.56;;;38.90;22.45
12209;BME280;6167;43.080;25.634;2022-07-15T09:20:00;99308.59;;;38.89;22.80
12209;BME280;6167;43.080;25.634;2022-07-15T09:25:36;99311.91;;;39.07;22.63
12209;BME280;6167;43.080;25.634;2022-07-15T09:28:06;99314.59;;;38.80;23.25
12209;BME280;6167;43.080;25.634;2022-07-15T09:30:36;99307.09;;;38.76;23.52
12209;BME280;6167;43.080;25.634;2022-07-15T09:33:23;99299.44;;;38.83;23.67
12209;BME280;6167;43.080;25.634;2022-07-15T09:36:12;99297.28;;;38.08;25.02
12209;BME280;6167;43.080;25.634;2022-07-15T09:38:45;99286.38;;;38.35;24.63
12209;BME280;6167;43.080;25.634;2022-07-15T09:41:24;99291.47;;;37.09;26.11
12209;BME280;6167;43.080;25.634;2022-07-15T09:43:53;99297.00;;;37.71;25.48
12209;BME280;6167;43.080;25.634;2022-07-15T09:46:22;99290.31;;;37.33;25.49
12209;BME280;6167;43.080;25.634;2022-07-15T09:48:51;99299.16;;;37.07;26.22
12209;BME280;6167;43.080;25.634;2022-07-15T09:51:19;99290.16;;;37.73;24.73
12209;BME280;6167;43.080;25.634;2022-07-15T09:53:47;99282.88;;;37.84;25.30
12209;BME280;6167;43.080;25.634;2022-07-15T09:56:19;99279.84;;;37.86;24.62
12209;BME280;6167;43.080;25.634;2022-07-15T09:58:51;99278.09;;;37.63;24.57
12209;BME280;6167;43.080;25.634;2022-07-15T10:01:18;99271.44;;;37.59;25.03
12209;BME280;6167;43.080;25.634;2022-07-15T10:03:49;99282.97;;;37.10;26.23
12209;BME280;6167;43.080;25.634;2022-07-15T10:06:17;99268.59;;;37.20;26.12
12209;BME280;6167;43.080;25.634;2022-07-15T10:08:48;99262.06;;;37.43;24.90
12209;BME280;6167;43.080;25.634;2022-07-15T10:11:16;99262.59;;;37.73;24.90
12209;BME280;6167;43.080;25.634;2022-07-15T10:14:01;99265.88;;;36.68;25.71
12209;BME280;6167;43.080;25.634;2022-07-15T10:16:55;99269.59;;;36.34;25.60
12209;BME280;6167;43.080;25.634;2022-07-15T10:19:37;99262.38;;;36.44;26.51
12209;BME280;6167;43.080;25.634;2022-07-15T10:22:14;99262.53;;;36.66;25.21
12209;BME280;6167;43.080;25.634;2022-07-15T10:24:57;99253.28;;;36.84;25.40
12209;BME280;6167;43.080;25.634;2022-07-15T10:27:54;99260.63;;;36.78;25.36
12209;BME280;6167;43.080;25.634;2022-07-15T10:30:25;99250.03;;;36.87;24.89
12209;BME280;6167;43.080;25.634;2022-07-15T10:33:12;99237.72;;;36.38;25.10
12209;BME280;6167;43.080;25.634;2022-07-15T10:35:44;99243.63;;;36.70;25.39
12209;BME280;6167;43.080;25.634;2022-07-15T10:38:26;99249.25;;;36.63;24.98
12209;BME280;6167;43.080;25.634;2022-07-15T10:40:58;99229.69;;;36.48;25.64
12209;BME280;6167;43.080;25.634;2022-07-15T10:43:48;99246.13;;;37.00;24.81
12209;BME280;6167;43.080;25.634;2022-07-15T10:46:27;99239.50;;;37.29;24.64
12209;BME280;6167;43.080;25.634;2022-07-15T10:49:28;99230.91;;;37.26;24.53
12209;BME280;6167;43.080;25.634;2022-07-15T10:51:55;99236.75;;;37.29;24.62
12209;BME280;6167;43.080;25.634;2022-07-15T10:54:43;99226.53;;;37.13;25.22
12209;BME280;6167;43.080;25.634;2022-07-15T10:57:11;99227.28;;;37.08;25.28
12209;BME280;6167;43.080;25.634;2022-07-15T10:59:52;99223.25;;;36.71;25.52
12209;BME280;6167;43.080;25.634;2022-07-15T11:02:21;99230.38;;;35.57;28.76
12209;BME280;6167;43.080;25.634;2022-07-15T11:04:50;99233.63;;;35.00;27.03
12209;BME280;6167;43.080;25.634;2022-07-15T11:07:34;99229.84;;;35.25;27.28
12209;BME280;6167;43.080;25.634;2022-07-15T11:10:18;99227.75;;;35.62;27.18
12209;BME280;6167;43.080;25.634;2022-07-15T11:13:02;99219.88;;;35.77;26.91
12209;BME280;6167;43.080;25.634;2022-07-15T11:15:32;99232.06;;;36.04;25.20
12209;BME280;6167;43.080;25.634;2022-07-15T11:18:00;99224.97;;;36.20;25.90
12209;BME280;6167;43.080;25.634;2022-07-15T11:20:31;99220.66;;;36.64;26.28
12209;BME280;6167;43.080;25.634;2022-07-15T11:23:00;99225.75;;;37.01;24.10
12209;BME280;6167;43.080;25.634;2022-07-15T11:25:30;99215.44;;;37.58;23.71
12209;BME280;6167;43.080;25.634;2022-07-15T11:28:07;99214.41;;;37.64;23.78
12209;BME280;6167;43.080;25.634;2022-07-15T11:30:39;99215.00;;;36.99;25.19
12209;BME280;6167;43.080;25.634;2022-07-15T11:33:09;99209.09;;;37.24;24.08
12209;BME280;6167;43.080;25.634;2022-07-15T11:35:48;99210.06;;;37.01;23.97
12209;BME280;6167;43.080;25.634;2022-07-15T11:38:20;99204.09;;;37.71;23.70
12209;BME280;6167;43.080;25.634;2022-07-15T11:40:50;99207.22;;;37.97;23.68
12209;BME280;6167;43.080;25.634;2022-07-15T11:43:34;99202.03;;;38.00;23.51
12209;BME280;6167;43.080;25.634;2022-07-15T11:46:20;99205.94;;;37.66;24.49
12209;BME280;6167;43.080;25.634;2022-07-15T11:48:50;99206.53;;;36.61;25.53
12209;BME280;6167;43.080;25.634;2022-07-15T11:51:24;99204.22;;;35.54;26.14
12209;BME280;6167;43.080;25.634;2022-07-15T11:53:51;99212.03;;;36.21;25.16
12209;BME280;6167;43.080;25.634;2022-07-15T11:56:19;99205.84;;;36.13;25.28
12209;BME280;6167;43.080;25.634;2022-07-15T11:58:49;99199.88;;;36.17;24.73
12209;BME280;6167;43.080;25.634;2022-07-15T12:01:19;99199.53;;;36.01;24.96
12209;BME280;6167;43.080;25.634;2022-07-15T12:03:50;99202.44;;;35.71;25.57
12209;BME280;6167;43.080;25.634;2022-07-15T12:06:19;99193.44;;;35.99;25.13
12209;BME280;6167;43.080;25.634;2022-07-15T12:08:50;99180.78;;;35.87;25.92
12209;BME280;6167;43.080;25.634;2022-07-15T12:11:22;99201.81;;;35.58;25.18
12209;BME280;6167;43.080;25.634;2022-07-15T12:13:52;99194.66;;;35.80;25.16
12209;BME280;6167;43.080;25.634;2022-07-15T12:16:23;99192.38;;;35.65;25.01
12209;BME280;6167;43.080;25.634;2022-07-15T12:18:57;99195.03;;;36.24;23.75
12209;BME280;6167;43.080;25.634;2022-07-15T12:21:25;99187.09;;;36.51;23.75
12209;BME280;6167;43.080;25.634;2022-07-15T12:24:07;99198.13;;;36.67;24.39
12209;BME280;6167;43.080;25.634;2022-07-15T12:26:36;99188.81;;;35.88;24.71
12209;BME280;6167;43.080;25.634;2022-07-15T12:29:07;99180.78;;;36.38;24.20
12209;BME280;6167;43.080;25.634;2022-07-15T12:31:36;99188.13;;;36.33;24.30
12209;BME280;6167;43.080;25.634;2022-07-15T12:34:05;99185.78;;;36.01;25.66
12209;BME280;6167;43.080;25.634;2022-07-15T12:36:34;99185.13;;;36.23;25.47
12209;BME280;6167;43.080;25.634;2022-07-15T12:39:09;99187.19;;;36.27;26.12
12209;BME280;6167;43.080;25.634;2022-07-15T12:41:37;99178.81;;;36.10;26.11
12209;BME280;6167;43.080;25.634;2022-07-15T12:44:05;99182.09;;;35.61;26.62
12209;BME280;6167;43.080;25.634;2022-07-15T12:46:51;99182.03;;;35.02;25.97
12209;BME280;6167;43.080;25.634;2022-07-15T12:49:43;99185.56;;;34.50;27.51
12209;BME280;6167;43.080;25.634;2022-07-15T12:52:12;99184.78;;;34.72;26.69
12209;BME280;6167;43.080;25.634;2022-07-15T12:54:39;99185.84;;;35.01;26.87
12209;BME280;6167;43.080;25.634;2022-07-15T12:57:18;99188.28;;;35.09;26.98
12209;BME280;6167;43.080;25.634;2022-07-15T12:59:49;99191.84;;;35.10;26.84
12209;BME280;6167;43.080;25.634;2022-07-15T13:02:16;99186.38;;;35.10;26.96
12209;BME280;6167;43.080;25.634;2022-07-15T13:04:44;99189.88;;;35.29;27.08
12209;BME280;6167;43.080;25.634;2022-07-15T13:07:12;99184.59;;;35.39;27.42
12209;BME280;6167;43.080;25.634;2022-07-15T13:09:39;99183.63;;;35.10;27.02
12209;BME280;6167;43.080;25.634;2022-07-15T13:12:08;99183.47;;;35.17;26.99
12209;BME280;6167;43.080;25.634;2022-07-15T13:14:36;99187.16;;;34.99;27.19
12209;BME280;6167;43.080;25.634;2022-07-15T13:17:03;99186.59;;;34.67;26.97